EHGR METAR and TAF | Updated Today

EHGR METAR

Gilze Rijen Air Base

Observation time: 16 min. ago

EHGR 251856Z AUTO 21006KT 160V250 9999 BKN022 OVC027 14/10 Q1016 WHT

Need help? Read our tutorial on how to read METARs or read the parsed version below.

Gilze Rijen Air Base (EHGR) METAR

  • Weather conditions on Wed, 25 May 2022 18:56:00 +0000 (16 min. ago):
  • Present conditions: Dry
  • Clouds: Broken sky at 671 meters; overcast sky at 823 meters
  • Visibility: Greater than 10 km
  • Wind: 210 degrees at 6 knots
  • Temperature: 14 celsius
  • Dew point: 10 celsius
  • Pressure: 1016 millibars
  • Remarks: None


Useful to know...